Time;durP1;ratioP1;P1;durP2;ratioP2;P2;SDS_P1;SDS_P2;PMS_P1;PMS_P2;Temp;Humidity;BMP_temperature;BMP_pressure;BME280_temperature;BME280_humidity;BME280_pressure;Samples;Min_cycle;Max_cycle;Signal;HPM_P1;HPM_P2
2022/10/24 03:03:21;;;;;;;10.85;3.20;;;;;;;10.30;100.00;98800.63;5104219;27;20131;-38
2022/10/24 03:05:48;;;;;;;19.52;4.35;;;;;;;10.29;100.00;98808.16;5108658;28;20051;-39
2022/10/24 03:08:15;;;;;;;15.63;2.90;;;;;;;10.30;100.00;98806.94;5105475;28;20528;-38
2022/10/24 03:10:41;;;;;;;26.55;4.70;;;;;;;10.29;100.00;98810.13;5105652;28;20138;-38
2022/10/24 03:13:08;;;;;;;25.45;4.55;;;;;;;10.29;100.00;98813.69;5102792;28;20451;-46
2022/10/24 03:15:35;;;;;;;16.65;5.32;;;;;;;10.28;100.00;98809.31;5104570;28;20040;-39
2022/10/24 03:18:01;;;;;;;30.40;4.43;;;;;;;10.23;100.00;98803.38;5104917;28;20134;-41
2022/10/24 03:20:28;;;;;;;26.35;5.35;;;;;;;10.21;100.00;98814.84;5105029;28;20048;-38
2022/10/24 03:22:55;;;;;;;23.63;3.70;;;;;;;10.19;100.00;98810.88;5102804;28;20047;-38
2022/10/24 03:25:21;;;;;;;21.10;4.75;;;;;;;10.17;100.00;98825.06;5104038;28;20052;-38
2022/10/24 03:27:48;;;;;;;15.65;3.05;;;;;;;10.16;100.00;98812.44;5104347;28;20553;-38
2022/10/24 03:30:15;;;;;;;14.05;3.65;;;;;;;10.15;100.00;98821.91;5100759;28;20048;-38
2022/10/24 03:32:42;;;;;;;19.63;3.22;;;;;;;10.15;100.00;98816.38;5102495;28;20040;-38
2022/10/24 03:35:09;;;;;;;22.67;5.40;;;;;;;10.17;100.00;98815.97;5102137;28;20523;-39
2022/10/24 03:37:40;;;;;;;23.15;3.55;;;;;;;10.14;100.00;98820.31;5082915;28;20036;-38
2022/10/24 03:40:08;;;;;;;22.08;5.65;;;;;;;10.14;100.00;98814.78;5103704;28;20040;-38
2022/10/24 03:42:34;;;;;;;17.52;3.22;;;;;;;10.15;100.00;98821.91;5099790;28;20048;-38
2022/10/24 03:45:01;;;;;;;21.95;4.18;;;;;;;10.18;100.00;98815.63;5102657;28;20035;-44
2022/10/24 03:47:28;;;;;;;18.50;3.47;;;;;;;10.19;100.00;98817.19;5102303;28;20040;-38
2022/10/24 03:49:55;;;;;;;16.05;3.83;;;;;;;10.23;100.00;98808.91;5100791;28;20044;-38
2022/10/24 03:52:22;;;;;;;20.83;3.08;;;;;;;10.23;100.00;98814.44;5100832;28;20055;-39
2022/10/24 03:54:48;;;;;;;25.83;4.20;;;;;;;10.25;100.00;98815.63;5101418;28;20668;-38
2022/10/24 03:57:15;;;;;;;14.18;4.03;;;;;;;10.26;100.00;98822.75;5105385;28;20092;-38
2022/10/24 03:59:42;;;;;;;16.15;5.03;;;;;;;10.27;100.00;98818.78;5102510;28;20147;-39
2022/10/24 04:02:09;;;;;;;13.88;4.95;;;;;;;10.28;100.00;98816.81;5093133;28;20086;-42
2022/10/24 04:04:36;;;;;;;16.38;3.95;;;;;;;10.26;100.00;98816.44;5103599;28;20040;-38
2022/10/24 04:07:04;;;;;;;20.63;3.72;;;;;;;10.28;100.00;98836.19;5105610;28;20058;-38
2022/10/24 04:09:31;;;;;;;20.00;3.22;;;;;;;10.28;100.00;98833.41;5102292;28;20055;-38
2022/10/24 04:11:58;;;;;;;15.43;3.50;;;;;;;10.30;100.00;98839.34;5108764;28;20039;-38
2022/10/24 04:14:24;;;;;;;13.30;2.85;;;;;;;10.31;100.00;98836.19;5090229;28;20633;-39
2022/10/24 04:16:51;;;;;;;10.85;3.63;;;;;;;10.32;100.00;98840.56;5089056;28;20052;-39
2022/10/24 04:19:18;;;;;;;18.15;4.18;;;;;;;10.31;100.00;98836.19;5089919;28;20047;-40
2022/10/24 04:21:46;;;;;;;17.45;3.75;;;;;;;10.33;100.00;98838.56;5090310;28;20047;-40
2022/10/24 04:24:14;;;;;;;18.80;4.00;;;;;;;10.32;100.00;98843.34;5089381;28;20054;-39
2022/10/24 04:26:41;;;;;;;25.08;4.45;;;;;;;10.33;100.00;98847.66;5088637;28;20048;-38
2022/10/24 04:29:07;;;;;;;13.52;3.30;;;;;;;10.33;100.00;98847.66;5089787;28;20040;-39
2022/10/24 04:31:34;;;;;;;17.77;3.53;;;;;;;10.34;100.00;98856.75;5089371;28;20094;-38
2022/10/24 04:34:01;;;;;;;19.10;4.22;;;;;;;10.35;100.00;98847.28;5089721;28;20055;-40
2022/10/24 04:36:27;;;;;;;17.17;3.45;;;;;;;10.35;100.00;98848.06;5092021;28;20401;-38
2022/10/24 04:38:55;;;;;;;15.15;3.72;;;;;;;10.37;100.00;98844.91;5089463;28;20043;-38
2022/10/24 04:41:22;;;;;;;15.65;3.45;;;;;;;10.39;100.00;98846.13;5065768;28;20510;-43
2022/10/24 04:43:48;;;;;;;19.67;4.20;;;;;;;10.43;100.00;98850.88;5063402;28;20507;-38
2022/10/24 04:46:15;;;;;;;14.70;3.25;;;;;;;10.46;100.00;98841.78;5088087;28;20047;-38
2022/10/24 04:48:41;;;;;;;16.60;4.20;;;;;;;10.51;100.00;98846.94;5089782;28;20044;-38
2022/10/24 04:51:08;;;;;;;13.73;3.35;;;;;;;10.54;100.00;98848.94;5088727;28;20044;-38
2022/10/24 04:53:35;;;;;;;25.75;5.65;;;;;;;10.59;100.00;98845.78;5088137;28;20401;-39
2022/10/24 04:56:02;;;;;;;14.07;3.22;;;;;;;10.62;100.00;98847.75;5089763;28;20052;-41
2022/10/24 04:58:29;;;;;;;9.13;3.00;;;;;;;10.65;100.00;98855.25;5087917;28;20125;-41
2022/10/24 05:00:55;;;;;;;16.52;5.28;;;;;;;10.66;100.00;98857.66;5071723;28;20058;-42
2022/10/24 05:03:22;;;;;;;15.82;3.60;;;;;;;10.70;100.00;98857.66;5098884;28;20123;-41
2022/10/24 05:05:49;;;;;;;19.33;3.67;;;;;;;10.69;100.00;98856.09;5088635;28;20048;-45
2022/10/24 05:08:17;;;;;;;18.23;4.32;;;;;;;10.70;100.00;98846.56;5071904;28;20089;-41
2022/10/24 05:10:44;;;;;;;13.40;3.45;;;;;;;10.72;100.00;98860.84;5091456;28;20040;-41
2022/10/24 05:13:11;;;;;;;33.50;4.50;;;;;;;10.73;100.00;98859.63;5093506;28;20051;-41
2022/10/24 05:15:37;;;;;;;15.18;4.68;;;;;;;10.74;100.00;98867.56;5088702;28;20040;-41
2022/10/24 05:18:04;;;;;;;17.38;3.90;;;;;;;10.75;100.00;98863.59;5089261;28;20051;-41
2022/10/24 05:20:31;;;;;;;14.73;4.20;;;;;;;10.77;100.00;98863.22;5086076;28;20493;-40
2022/10/24 05:22:58;;;;;;;14.20;3.80;;;;;;;10.76;100.00;98867.16;5088052;28;20040;-41
2022/10/24 05:25:25;;;;;;;20.25;3.58;;;;;;;10.73;100.00;98867.94;5087818;28;20044;-41
2022/10/24 05:27:51;;;;;;;25.15;3.85;;;;;;;10.72;100.00;98867.16;5087677;28;20079;-48
2022/10/24 05:30:18;;;;;;;14.60;3.67;;;;;;;10.72;100.00;98875.44;5087463;28;20040;-41
2022/10/24 05:32:45;;;;;;;16.60;3.88;;;;;;;10.73;100.00;98873.47;5099371;28;20453;-41
2022/10/24 05:35:14;;;;;;;23.50;3.72;;;;;;;10.73;100.00;98877.03;5096665;28;20408;-41
2022/10/24 05:37:42;;;;;;;14.75;3.42;;;;;;;10.73;100.00;98879.00;5086094;28;20051;-41
2022/10/24 05:40:10;;;;;;;18.10;4.43;;;;;;;10.72;100.00;98877.44;5088116;28;20379;-41
2022/10/24 05:42:37;;;;;;;15.02;3.42;;;;;;;10.71;100.00;98876.66;5088929;28;20142;-41
2022/10/24 05:45:09;;;;;;;20.25;5.78;;;;;;;10.70;100.00;98879.78;5087362;28;20071;-44
2022/10/24 05:47:36;;;;;;;18.25;4.20;;;;;;;10.67;100.00;98878.59;5088335;28;20448;-41
2022/10/24 05:50:04;;;;;;;20.00;4.18;;;;;;;10.66;100.00;98879.00;5088217;28;20036;-41
2022/10/24 05:52:31;;;;;;;9.93;2.95;;;;;;;10.65;100.00;98877.41;5085065;28;20050;-40
2022/10/24 05:54:58;;;;;;;13.20;3.53;;;;;;;10.63;100.00;98880.56;5087031;28;20043;-41
2022/10/24 05:57:34;;;;;;;22.20;4.47;;;;;;;10.64;100.00;98887.72;5087598;28;20040;-42
2022/10/24 06:00:01;;;;;;;19.38;5.65;;;;;;;10.63;100.00;98888.09;5087496;28;20512;-40
2022/10/24 06:02:27;;;;;;;33.60;5.38;;;;;;;10.63;100.00;98883.34;5086416;28;20067;-41
2022/10/24 06:04:55;;;;;;;21.83;3.97;;;;;;;10.63;100.00;98894.41;5084719;28;20043;-46
2022/10/24 06:07:22;;;;;;;19.38;3.97;;;;;;;10.60;100.00;98892.41;5083622;28;20047;-41
2022/10/24 06:09:49;;;;;;;24.67;4.30;;;;;;;10.61;100.00;98887.69;5088346;28;20040;-40
2022/10/24 06:12:16;;;;;;;11.38;3.53;;;;;;;10.58;100.00;98885.69;5088356;28;20068;-40
2022/10/24 06:14:43;;;;;;;16.23;3.35;;;;;;;10.57;100.00;98886.88;5086769;28;20744;-45
2022/10/24 06:17:10;;;;;;;21.10;3.88;;;;;;;10.56;100.00;98901.91;5083203;28;20044;-40
2022/10/24 06:19:38;;;;;;;20.35;4.35;;;;;;;10.53;100.00;98897.16;5087298;28;20405;-40
2022/10/24 06:22:06;;;;;;;19.02;5.10;;;;;;;10.50;100.00;98900.69;5074985;28;20059;-43
2022/10/24 06:24:35;;;;;;;15.60;4.10;;;;;;;10.47;100.00;98893.16;5090237;28;20051;-42
2022/10/24 06:27:03;;;;;;;13.98;3.22;;;;;;;10.44;100.00;98899.47;5089166;28;20055;-40
2022/10/24 06:29:29;;;;;;;17.05;4.05;;;;;;;10.43;100.00;98906.19;5089200;28;20051;-40
2022/10/24 06:31:57;;;;;;;14.93;3.15;;;;;;;10.47;100.00;98909.75;5089513;28;20082;-41
2022/10/24 06:34:23;;;;;;;16.60;4.00;;;;;;;10.51;100.00;98921.66;5089118;28;20130;-45
2022/10/24 06:36:50;;;;;;;14.65;4.25;;;;;;;10.53;100.00;98909.00;5088589;28;20048;-40
2022/10/24 06:39:17;;;;;;;11.52;3.05;;;;;;;10.58;100.00;98921.66;5088920;28;20051;-40
2022/10/24 06:41:44;;;;;;;13.80;3.47;;;;;;;10.59;100.00;98912.19;5089760;28;20044;-40
2022/10/24 06:44:11;;;;;;;11.95;5.22;;;;;;;10.59;100.00;98910.19;5089058;28;20048;-41
2022/10/24 06:46:37;;;;;;;21.55;3.50;;;;;;;10.57;100.00;98915.34;5095492;28;20511;-40
2022/10/24 06:49:04;;;;;;;14.25;4.03;;;;;;;10.58;100.00;98916.13;5088721;28;20044;-41
2022/10/24 06:51:31;;;;;;;16.48;4.25;;;;;;;10.59;100.00;98920.50;5088668;28;20036;-45
2022/10/24 06:53:58;;;;;;;15.00;3.38;;;;;;;10.60;100.00;98916.53;5089161;28;20044;-41
2022/10/24 06:56:25;;;;;;;13.10;3.55;;;;;;;10.63;100.00;98916.56;5088967;28;20359;-41
2022/10/24 06:58:52;;;;;;;16.00;5.13;;;;;;;10.64;100.00;98914.59;5088849;28;20059;-41
2022/10/24 07:01:20;;;;;;;10.23;3.22;;;;;;;10.65;100.00;98905.88;5088120;28;20052;-46
2022/10/24 07:03:48;;;;;;;11.13;2.78;;;;;;;10.67;100.00;98919.34;5086049;28;20044;-41
2022/10/24 07:06:15;;;;;;;12.75;3.30;;;;;;;10.69;100.00;98916.97;5085647;28;20040;-43
2022/10/24 07:08:42;;;;;;;12.23;3.05;;;;;;;10.71;100.00;98926.47;5081902;28;20052;-41
2022/10/24 07:11:09;;;;;;;15.35;5.18;;;;;;;10.73;100.00;98926.06;5080261;28;20040;-40
2022/10/24 07:13:37;;;;;;;15.32;2.90;;;;;;;10.74;100.00;98922.94;5100731;28;20043;-38
2022/10/24 07:16:04;;;;;;;30.92;5.60;;;;;;;10.75;100.00;98929.25;5086350;28;20534;-39
2022/10/24 07:18:31;;;;;;;11.95;2.97;;;;;;;10.75;100.00;98932.78;5086423;28;20067;-39
2022/10/24 07:21:03;;;;;;;11.25;3.03;;;;;;;10.74;100.00;98935.97;5087164;28;20421;-39
2022/10/24 07:23:30;;;;;;;12.25;2.92;;;;;;;10.74;100.00;98947.03;5088557;28;20044;-41
2022/10/24 07:26:05;;;;;;;17.17;3.08;;;;;;;10.75;100.00;98940.31;5083111;28;20044;-47
2022/10/24 07:28:32;;;;;;;10.23;2.92;;;;;;;10.76;100.00;98945.47;5087157;28;20043;-45
2022/10/24 07:31:00;;;;;;;11.25;2.97;;;;;;;10.79;100.00;98947.47;5088150;28;20564;-40
2022/10/24 07:33:28;;;;;;;13.98;2.80;;;;;;;10.84;100.00;98952.59;5070587;28;20051;-41
2022/10/24 07:35:54;;;;;;;14.07;2.60;;;;;;;10.85;100.00;98953.41;5082012;28;20438;-43
2022/10/24 07:38:22;;;;;;;12.27;2.85;;;;;;;10.86;100.00;98949.44;5086118;28;20274;-40
2022/10/24 07:40:48;;;;;;;16.08;2.45;;;;;;;10.92;100.00;98957.00;5087491;28;20478;-40
2022/10/24 07:43:16;;;;;;;7.75;2.65;;;;;;;10.99;100.00;98970.03;5088076;28;20051;-40
2022/10/24 07:45:43;;;;;;;11.05;2.58;;;;;;;11.06;100.00;98963.75;5086737;28;20048;-39
2022/10/24 07:48:17;;;;;;;10.43;2.28;;;;;;;11.10;100.00;98964.53;5087551;28;20076;-39
2022/10/24 07:50:45;;;;;;;11.85;3.05;;;;;;;11.15;100.00;98967.72;5091498;28;20500;-35
2022/10/24 07:53:13;;;;;;;10.05;2.17;;;;;;;11.18;100.00;98972.47;5076244;28;20401;-39
2022/10/24 07:55:41;;;;;;;6.05;2.10;;;;;;;11.23;100.00;98969.31;5090583;28;20051;-38
2022/10/24 07:58:10;;;;;;;6.35;1.85;;;;;;;11.25;100.00;98966.94;5090258;28;20056;-40
2022/10/24 08:00:36;;;;;;;9.38;1.77;;;;;;;11.27;100.00;98978.44;5089714;28;20505;-45
2022/10/24 08:03:10;;;;;;;6.88;2.03;;;;;;;11.29;100.00;98983.59;5092348;28;20117;-40
2022/10/24 08:05:39;;;;;;;7.93;1.90;;;;;;;11.30;100.00;98985.97;5094131;28;20051;-40
2022/10/24 08:08:06;;;;;;;8.05;1.15;;;;;;;11.31;100.00;98986.75;5087889;28;20040;-40
2022/10/24 08:10:52;;;;;;;8.30;1.52;;;;;;;11.33;100.00;98989.94;5086165;28;20040;-40
2022/10/24 08:13:19;;;;;;;9.57;1.52;;;;;;;11.32;100.00;98993.88;5091527;28;20048;-40
2022/10/24 08:15:46;;;;;;;7.40;1.92;;;;;;;11.33;100.00;99001.03;5088602;28;20485;-42
2022/10/24 08:18:12;;;;;;;6.70;2.22;;;;;;;11.33;100.00;98996.25;5085128;28;20050;-43
2022/10/24 08:20:39;;;;;;;7.80;1.55;;;;;;;11.31;100.00;98998.63;5087421;28;20059;-40
2022/10/24 08:23:06;;;;;;;6.05;1.90;;;;;;;11.32;100.00;99008.53;5089605;28;20048;-40
2022/10/24 08:25:33;;;;;;;8.60;2.70;;;;;;;11.33;100.00;99007.34;5071648;28;20048;-45
2022/10/24 08:28:00;;;;;;;10.88;3.65;;;;;;;11.33;100.00;99012.88;5089587;28;20052;-40
2022/10/24 08:30:32;;;;;;;5.88;1.20;;;;;;;11.34;100.00;99016.44;5090553;28;20047;-40
2022/10/24 08:32:58;;;;;;;8.85;2.13;;;;;;;11.33;100.00;99028.72;5081477;28;20040;-40
2022/10/24 08:35:25;;;;;;;7.40;1.92;;;;;;;11.33;100.00;99023.97;5091144;28;20118;-40
2022/10/24 08:37:52;;;;;;;6.75;1.60;;;;;;;11.34;100.00;99033.06;5088837;28;20040;-40
2022/10/24 08:40:19;;;;;;;5.68;1.65;;;;;;;11.31;100.00;99037.41;5089488;28;20383;-40
2022/10/24 08:42:47;;;;;;;5.28;1.92;;;;;;;11.33;100.00;99035.03;5084326;28;20056;-40
2022/10/24 08:45:37;;;;;;;21.58;3.35;;;;;;;11.33;100.00;99034.28;5090554;28;20153;-41
2022/10/24 08:48:08;;;;;;;6.05;2.00;;;;;;;11.33;100.00;99037.03;5089774;28;20488;-40
2022/10/24 08:50:38;;;;;;;5.88;2.20;;;;;;;11.33;100.00;99048.13;5089806;28;20512;-42
2022/10/24 08:53:11;;;;;;;5.18;2.20;;;;;;;11.34;100.00;99044.94;5087111;28;20047;-40
2022/10/24 08:55:39;;;;;;;5.25;2.10;;;;;;;11.35;100.00;99048.53;5089545;28;20476;-41
2022/10/24 08:58:19;;;;;;;4.10;1.55;;;;;;;11.36;100.00;99055.63;5086841;28;20058;-42
2022/10/24 09:00:49;;;;;;;4.70;3.03;;;;;;;11.36;100.00;99066.72;5049756;28;20470;-44
2022/10/24 09:03:25;;;;;;;6.63;2.20;;;;;;;11.36;100.00;99061.97;5048620;28;20712;-43
2022/10/24 09:06:21;;;;;;;6.50;2.45;;;;;;;11.37;100.00;99074.66;5049512;28;20056;-46
2022/10/24 09:08:54;;;;;;;5.05;2.35;;;;;;;11.38;100.00;99069.91;5047732;28;22031;-44
2022/10/24 09:11:50;;;;;;;10.73;2.70;;;;;;;11.38;100.00;99069.91;5048365;28;20059;-43
2022/10/24 09:14:22;;;;;;;7.60;2.65;;;;;;;11.40;100.00;99071.09;5030064;28;20044;-41
2022/10/24 09:16:57;;;;;;;5.55;2.72;;;;;;;11.43;100.00;99077.84;5050039;28;20650;-43
2022/10/24 09:19:27;;;;;;;9.75;2.65;;;;;;;11.48;100.00;99083.00;5048716;28;21428;-43
2022/10/24 09:21:56;;;;;;;6.78;2.47;;;;;;;11.51;100.00;99085.78;5049117;28;20510;-43
2022/10/24 09:24:43;;;;;;;4.32;2.05;;;;;;;11.55;100.00;99089.34;5048269;28;20064;-45
2022/10/24 09:27:35;;;;;;;8.55;2.00;;;;;;;11.55;100.00;99092.13;5049208;28;20040;-42
2022/10/24 09:30:04;;;;;;;8.27;2.23;;;;;;;11.56;100.00;99096.50;5048184;28;20056;-45
2022/10/24 09:32:33;;;;;;;4.82;1.90;;;;;;;11.62;100.00;99100.44;5049421;28;20727;-41
2022/10/24 09:35:05;;;;;;;2.78;1.63;;;;;;;11.67;100.00;99098.50;5048533;28;20055;-43
2022/10/24 09:37:34;;;;;;;3.35;2.28;;;;;;;11.70;100.00;99086.66;5049133;28;21258;-45
2022/10/24 09:40:28;;;;;;;4.30;1.80;;;;;;;11.75;100.00;99098.16;5031043;28;20055;-43
2022/10/24 09:43:21;;;;;;;2.55;1.67;;;;;;;11.81;100.00;99098.56;5047679;28;20663;-44
2022/10/24 09:45:51;;;;;;;2.95;1.80;;;;;;;11.89;100.00;99100.13;5048020;28;20070;-42
2022/10/24 09:48:25;;;;;;;1.58;1.30;;;;;;;11.93;100.00;99101.75;5050404;28;20986;-44
2022/10/24 09:50:57;;;;;;;8.90;1.50;;;;;;;12.00;100.00;99100.94;5031345;28;21285;-43
2022/10/24 09:53:26;;;;;;;6.95;2.40;;;;;;;12.08;100.00;99099.78;5049484;28;20048;-42
2022/10/24 09:56:06;;;;;;;3.35;1.02;;;;;;;12.11;100.00;99112.84;5050920;28;20052;-41
2022/10/24 09:58:33;;;;;;;2.78;1.20;;;;;;;12.15;100.00;99106.13;5049491;28;20514;-42
2022/10/24 10:01:16;;;;;;;1.08;0.90;;;;;;;12.16;100.00;99118.00;5049256;28;20063;-44
2022/10/24 10:04:00;;;;;;;2.08;1.30;;;;;;;12.16;100.00;99120.78;5049713;28;20052;-44
2022/10/24 10:06:34;;;;;;;1.52;1.00;;;;;;;12.14;100.00;99117.63;5050099;28;20482;-41
2022/10/24 10:09:00;;;;;;;4.47;0.90;;;;;;;12.15;100.00;99124.75;5048416;28;20052;-42
2022/10/24 10:11:32;;;;;;;5.10;0.82;;;;;;;12.17;100.00;99119.59;5048388;28;20509;-45
2022/10/24 10:14:27;;;;;;;5.38;1.27;;;;;;;12.20;100.00;99127.16;5048508;28;20048;-44
2022/10/24 10:17:04;;;;;;;2.47;0.90;;;;;;;12.21;100.00;99128.72;5048887;28;20051;-41
2022/10/24 10:19:35;;;;;;;2.28;0.80;;;;;;;12.25;100.00;99132.28;5049228;28;20048;-42
2022/10/24 10:22:19;;;;;;;1.15;0.73;;;;;;;12.31;100.00;99127.91;5048468;28;20044;-44
2022/10/24 10:24:46;;;;;;;1.77;1.02;;;;;;;12.43;100.00;99123.97;5048321;28;20044;-41
2022/10/24 10:27:36;;;;;;;2.35;0.90;;;;;;;12.58;100.00;99120.78;5048145;28;20044;-44
2022/10/24 10:30:13;;;;;;;4.47;0.80;;;;;;;12.76;100.00;99121.56;5049136;28;20050;-44
2022/10/24 10:33:02;;;;;;;1.90;1.02;;;;;;;12.93;100.00;99136.59;5048232;28;20047;-44
2022/10/24 10:35:32;;;;;;;7.25;0.77;;;;;;;13.04;100.00;99131.03;5049049;28;20462;-42
2022/10/24 10:38:07;;;;;;;1.52;0.75;;;;;;;13.05;100.00;99138.94;5048553;28;20079;-45
2022/10/24 10:40:43;;;;;;;2.38;1.05;;;;;;;13.04;100.00;99142.94;5048267;28;20520;-42
2022/10/24 10:43:10;;;;;;;3.60;0.80;;;;;;;13.03;100.00;99151.66;5048063;28;20622;-43
2022/10/24 10:46:03;;;;;;;1.30;0.40;;;;;;;13.05;100.00;99152.06;5048757;28;21712;-46
2022/10/24 10:48:34;;;;;;;3.25;0.55;;;;;;;13.05;100.00;99149.28;5050190;28;20036;-42
2022/10/24 10:51:07;;;;;;;1.63;0.80;;;;;;;13.11;100.00;99154.06;5048838;28;20060;-43
2022/10/24 10:53:42;;;;;;;3.30;0.80;;;;;;;13.21;100.00;99153.22;5069337;28;20052;-41
2022/10/24 10:56:17;;;;;;;1.60;0.80;;;;;;;13.30;100.00;99161.16;5088479;28;20497;-42
2022/10/24 10:59:16;;;;;;;2.28;0.73;;;;;;;13.33;100.00;99160.34;5051309;28;20051;-40
2022/10/24 11:02:19;;;;;;;3.60;0.98;;;;;;;13.40;100.00;99163.09;5043629;28;20055;-44
2022/10/24 11:04:56;;;;;;;6.40;1.42;;;;;;;13.49;100.00;99160.69;5086306;28;20489;-40
2022/10/24 11:07:28;;;;;;;2.47;0.70;;;;;;;13.61;100.00;99165.03;5086498;28;20070;-40
2022/10/24 11:09:58;;;;;;;2.78;0.60;;;;;;;13.61;100.00;99159.47;5088407;28;20044;-40
2022/10/24 11:12:38;;;;;;;2.22;0.77;;;;;;;13.60;100.00;99163.44;5090190;28;20048;-40
2022/10/24 11:15:19;;;;;;;3.13;0.73;;;;;;;13.62;100.00;99167.41;5086273;28;20131;-40
2022/10/24 11:17:57;;;;;;;2.17;1.02;;;;;;;13.68;99.59;99165.78;5078623;28;20040;-41
2022/10/24 11:20:30;;;;;;;2.95;0.60;;;;;;;13.73;99.33;99168.16;5088687;28;20046;-40
2022/10/24 11:23:08;;;;;;;4.10;0.85;;;;;;;13.77;98.92;99174.47;5087425;28;20044;-40
2022/10/24 11:25:53;;;;;;;1.48;0.60;;;;;;;13.83;98.65;99172.88;5090152;28;20051;-43
2022/10/24 11:28:23;;;;;;;4.82;1.58;;;;;;;13.87;97.92;99172.84;5091503;28;20052;-40
2022/10/24 11:31:00;;;;;;;0.88;0.57;;;;;;;13.93;97.72;99174.78;5090233;28;20044;-41
2022/10/24 11:33:34;;;;;;;6.40;1.27;;;;;;;13.95;97.35;99172.41;5090854;28;20051;-41
2022/10/24 11:36:22;;;;;;;1.45;0.55;;;;;;;14.00;97.21;99173.97;5089386;28;20040;-41
2022/10/24 11:39:20;;;;;;;0.85;0.52;;;;;;;14.09;97.01;99179.06;5083641;28;20048;-41
2022/10/24 11:41:49;;;;;;;0.50;0.50;;;;;;;14.10;96.75;99175.09;5073803;28;20109;-41
2022/10/24 11:44:38;;;;;;;4.28;0.73;;;;;;;14.12;96.76;99164.34;5089483;28;20093;-46
2022/10/24 11:47:23;;;;;;;0.65;0.25;;;;;;;14.11;96.42;99162.78;5090916;28;20078;-45
2022/10/24 11:50:23;;;;;;;4.00;0.55;;;;;;;14.11;96.31;99174.69;5054044;28;20039;-44
2022/10/24 11:53:11;;;;;;;1.95;0.90;;;;;;;14.10;95.88;99163.97;5089141;28;20496;-47
2022/10/24 11:55:46;;;;;;;0.65;0.50;;;;;;;14.09;95.70;99168.75;5091213;28;20135;-41
2022/10/24 11:58:18;;;;;;;1.83;1.30;;;;;;;14.17;95.42;99175.06;5090153;28;20054;-41
2022/10/24 12:00:58;;;;;;;1.05;0.40;;;;;;;14.23;94.90;99185.38;5091966;28;20512;-41
2022/10/24 12:03:35;;;;;;;2.08;0.60;;;;;;;14.34;94.37;99185.31;5070063;28;20076;-41
2022/10/24 12:06:26;;;;;;;0.65;0.40;;;;;;;14.51;94.25;99168.47;5068788;28;20056;-41
2022/10/24 12:09:08;;;;;;;0.90;0.40;;;;;;;14.72;93.74;99170.28;5061181;28;20079;-41
2022/10/24 12:11:53;;;;;;;1.73;1.33;;;;;;;14.87;93.40;99173.75;5070901;28;20044;-41
2022/10/24 12:14:26;;;;;;;7.43;0.60;;;;;;;15.00;93.08;99172.84;5068516;28;20036;-41
2022/10/24 12:17:14;;;;;;;0.98;0.38;;;;;;;15.14;92.42;99164.31;5067091;28;20101;-48
2022/10/24 12:19:44;;;;;;;3.13;0.60;;;;;;;15.20;92.01;99168.25;5069601;28;20047;-41
2022/10/24 12:22:20;;;;;;;1.25;0.25;;;;;;;15.20;91.37;99179.41;5068491;28;20432;-41
2022/10/24 12:24:47;;;;;;;2.03;0.32;;;;;;;15.17;90.54;99174.66;5069245;28;20136;-42
2022/10/24 12:27:20;;;;;;;1.70;0.50;;;;;;;15.15;89.81;99171.50;5070669;28;20048;-41
2022/10/24 12:30:01;;;;;;;1.42;0.40;;;;;;;15.08;88.70;99174.34;5071222;28;20506;-49
2022/10/24 12:32:44;;;;;;;2.28;0.30;;;;;;;15.00;88.75;99183.19;5067846;28;20068;-41
2022/10/24 12:35:35;;;;;;;3.83;0.50;;;;;;;14.84;88.09;99186.53;5062666;28;20072;-41
2022/10/24 12:38:14;;;;;;;0.73;0.20;;;;;;;14.67;87.52;99179.09;5071277;28;20054;-41
2022/10/24 12:40:56;;;;;;;0.55;0.40;;;;;;;14.60;87.18;99198.66;5071336;28;20048;-41
2022/10/24 12:43:33;;;;;;;0.98;0.20;;;;;;;14.55;87.13;99196.31;5067617;28;20069;-41
2022/10/24 12:46:15;;;;;;;4.72;0.43;;;;;;;14.55;87.15;99190.75;5038163;28;20124;-44
2022/10/24 12:48:57;;;;;;;7.30;0.45;;;;;;;14.52;86.60;99199.91;5060359;28;20040;-41
2022/10/24 12:51:32;;;;;;;2.15;0.35;;;;;;;14.49;86.32;99203.50;5074371;28;20039;-41
2022/10/24 12:54:11;;;;;;;3.78;0.47;;;;;;;14.53;86.43;99198.72;5060948;28;20044;-41
2022/10/24 12:57:01;;;;;;;2.08;0.17;;;;;;;14.62;85.75;99201.81;5066697;28;20191;-44
2022/10/24 12:59:32;;;;;;;0.73;0.30;;;;;;;14.59;85.38;99202.63;5067663;28;20101;-41
2022/10/24 13:02:14;;;;;;;2.90;0.20;;;;;;;14.54;85.36;99203.06;5077082;28;20052;-41
2022/10/24 13:04:44;;;;;;;;;;;;;;;14.47;85.41;99203.13;5093456;28;20178;-41
2022/10/24 13:07:38;;;;;;;2.13;0.30;;;;;;;14.48;85.67;99204.72;5089446;28;19919;-43
2022/10/24 13:10:32;;;;;;;1.23;0.20;;;;;;;14.52;85.73;99213.84;5099310;28;20123;-41
2022/10/24 13:13:25;;;;;;;1.65;0.52;;;;;;;14.56;85.81;99204.25;5089369;28;20047;-42
2022/10/24 13:16:01;;;;;;;0.85;0.30;;;;;;;14.61;85.89;99205.81;5083263;28;20055;-41
2022/10/24 13:18:39;;;;;;;1.27;0.40;;;;;;;14.69;86.01;99201.78;5086496;28;20044;-41
2022/10/24 13:21:13;;;;;;;3.97;0.65;;;;;;;14.77;86.03;99186.59;5087914;28;20071;-47
2022/10/24 13:23:44;;;;;;;0.98;0.30;;;;;;;14.75;85.82;99194.56;5072319;28;20135;-41
2022/10/24 13:26:54;;;;;;;0.45;0.20;;;;;;;14.74;85.81;99192.97;5089055;28;20071;-41
2022/10/24 13:29:27;;;;;;;0.85;0.20;;;;;;;14.79;85.80;99195.31;5007934;28;20623;-41
2022/10/24 13:32:13;;;;;;;1.65;0.20;;;;;;;14.90;85.62;99192.44;5005316;28;20065;-41
2022/10/24 13:34:49;;;;;;;6.65;1.30;;;;;;;15.02;85.26;99197.50;5052977;28;20054;-41
2022/10/24 13:37:16;;;;;;;0.50;0.35;;;;;;;14.97;84.63;99195.97;5100385;28;20054;-41
2022/10/24 13:39:50;;;;;;;0.65;0.30;;;;;;;14.90;84.32;99195.22;5088549;28;20067;-41
2022/10/24 13:42:39;;;;;;;1.88;0.32;;;;;;;14.86;84.25;99200.81;5088297;28;20408;-47
2022/10/24 13:45:29;;;;;;;2.85;0.30;;;;;;;14.81;84.15;99201.28;5074999;28;20040;-40
2022/10/24 13:48:06;;;;;;;1.88;0.30;;;;;;;14.75;84.12;99194.56;5089161;28;20040;-40
2022/10/24 13:50:37;;;;;;;0.75;0.20;;;;;;;14.67;84.01;99204.16;5060671;28;20052;-41
2022/10/24 13:53:13;;;;;;;2.35;0.40;;;;;;;14.58;84.07;99201.06;5089514;28;20054;-46
2022/10/24 13:55:46;;;;;;;2.67;0.30;;;;;;;14.48;84.58;99201.94;5088437;28;20048;-40
2022/10/24 13:58:21;;;;;;;0.80;0.30;;;;;;;14.41;84.93;99208.34;5089054;28;20543;-40
2022/10/24 14:00:56;;;;;;;0.52;0.25;;;;;;;14.32;85.34;99213.56;5086766;28;20040;-40
2022/10/24 14:03:27;;;;;;;2.92;0.30;;;;;;;14.21;85.66;99212.03;5071854;28;20036;-40
2022/10/24 14:06:00;;;;;;;2.50;0.70;;;;;;;14.11;86.19;99215.66;5067539;28;20075;-40
2022/10/24 14:08:35;;;;;;;1.60;0.90;;;;;;;14.07;86.72;99212.09;5067840;28;20051;-40
2022/10/24 14:11:11;;;;;;;1.58;0.32;;;;;;;13.98;87.08;99202.19;5068041;28;20041;-40
2022/10/24 14:13:44;;;;;;;2.15;0.50;;;;;;;13.92;87.55;99198.28;5068188;28;20371;-41
2022/10/24 14:16:11;;;;;;;1.60;0.50;;;;;;;13.87;88.10;99204.22;5065452;28;20502;-41
2022/10/24 14:18:40;;;;;;;3.97;0.85;;;;;;;14.00;88.67;99210.16;5066627;28;20505;-41
2022/10/24 14:21:19;;;;;;;1.77;0.68;;;;;;;14.17;88.40;99205.66;5035130;28;20063;-46
2022/10/24 14:23:57;;;;;;;2.85;0.85;;;;;;;14.17;88.24;99205.66;5067537;28;20047;-41
2022/10/24 14:26:24;;;;;;;2.97;1.15;;;;;;;14.13;88.62;99208.50;5068668;28;20071;-42
2022/10/24 14:28:57;;;;;;;2.75;1.48;;;;;;;14.11;88.96;99204.53;5067757;28;20456;-41
2022/10/24 14:31:33;;;;;;;3.90;1.15;;;;;;;14.03;89.24;99220.47;5072664;28;20098;-41
2022/10/24 14:34:04;;;;;;;2.90;1.33;;;;;;;13.97;89.54;99217.31;5068590;28;20131;-46
2022/10/24 14:36:36;;;;;;;1.85;0.40;;;;;;;13.88;89.78;99228.09;5061900;28;20151;-41
2022/10/24 14:39:04;;;;;;;1.55;0.73;;;;;;;13.79;90.13;99222.16;5062711;28;20044;-41
2022/10/24 14:41:38;;;;;;;6.60;0.80;;;;;;;13.80;90.64;99222.94;5061484;28;20036;-41
2022/10/24 14:44:06;;;;;;;2.88;1.13;;;;;;;13.81;90.83;99221.75;5061354;28;20097;-43
2022/10/24 14:46:36;;;;;;;1.83;0.30;;;;;;;13.94;91.25;99222.91;5067537;28;20040;-45
2022/10/24 14:49:35;;;;;;;0.95;0.30;;;;;;;14.03;90.83;99229.59;5067569;28;20040;-45
2022/10/24 14:52:19;;;;;;;0.93;0.28;;;;;;;13.99;90.89;99222.47;5052340;28;20145;-41